createdAt,value
2018-05-21T00:00:39.629Z,5.70
2018-05-21T00:03:07.404Z,6.27
2018-05-21T00:05:35.056Z,5.40
2018-05-21T00:08:02.753Z,5.43
2018-05-21T00:10:31.897Z,5.80
2018-05-21T00:12:59.528Z,5.53
2018-05-21T00:15:27.990Z,5.47
2018-05-21T00:17:55.620Z,5.67
2018-05-21T00:20:23.476Z,5.77
2018-05-21T00:22:51.350Z,5.20
2018-05-21T00:25:19.007Z,5.60
2018-05-21T00:27:46.965Z,5.17
2018-05-21T00:30:15.669Z,5.03
2018-05-21T00:32:44.964Z,5.40
2018-05-21T00:35:14.265Z,5.67
2018-05-21T00:37:43.970Z,6.03
2018-05-21T00:40:13.171Z,5.57
2018-05-21T00:42:42.679Z,5.90
2018-05-21T00:45:11.981Z,5.93
2018-05-21T00:47:41.477Z,6.10
2018-05-21T00:50:10.370Z,5.87
2018-05-21T00:52:39.880Z,5.83
2018-05-21T00:55:34.987Z,5.63
2018-05-21T00:58:04.690Z,5.60
2018-05-21T01:00:33.992Z,5.40
2018-05-21T01:03:03.501Z,5.47
2018-05-21T01:05:32.899Z,5.27
2018-05-21T01:08:02.100Z,5.37
2018-05-21T01:10:30.982Z,6.03
2018-05-21T01:12:59.163Z,5.63
2018-05-21T01:15:27.739Z,5.80
2018-05-21T01:17:55.750Z,5.93
2018-05-21T01:20:24.367Z,5.50
2018-05-21T01:22:52.008Z,5.60
2018-05-21T01:25:20.425Z,5.80
2018-05-21T01:27:48.124Z,5.80
2018-05-21T01:30:15.775Z,6.00
2018-05-21T01:32:44.143Z,6.03
2018-05-21T01:35:12.031Z,6.20
2018-05-21T01:37:39.683Z,5.80
2018-05-21T01:40:07.311Z,5.93
2018-05-21T01:42:35.001Z,6.00
2018-05-21T01:45:02.646Z,6.50
2018-05-21T01:47:30.335Z,5.70
2018-05-21T01:49:58.017Z,6.33
2018-05-21T01:52:25.736Z,6.23
2018-05-21T01:54:53.727Z,6.47
2018-05-21T01:57:21.443Z,6.73
2018-05-21T01:59:49.080Z,7.10
2018-05-21T02:02:17.484Z,6.70
2018-05-21T02:04:45.196Z,6.33
2018-05-21T02:07:13.616Z,6.00
2018-05-21T02:09:42.017Z,6.20
2018-05-21T02:12:09.900Z,6.07
2018-05-21T02:14:37.544Z,6.57
2018-05-21T02:17:05.181Z,6.43
2018-05-21T02:19:34.014Z,6.33
2018-05-21T02:22:01.660Z,6.23
2018-05-21T02:24:29.433Z,6.57
2018-05-21T02:26:57.320Z,6.27
2018-05-21T02:29:25.738Z,6.63
2018-05-21T02:31:54.370Z,6.63
2018-05-21T02:34:22.234Z,7.17
2018-05-21T02:36:49.880Z,7.07
2018-05-21T02:39:17.522Z,7.17
2018-05-21T02:41:45.625Z,7.37
2018-05-21T02:44:13.497Z,8.00
2018-05-21T02:46:41.140Z,7.47
2018-05-21T02:49:08.824Z,8.80
2018-05-21T02:51:36.468Z,9.73
2018-05-21T02:54:04.137Z,10.90
2018-05-21T02:56:31.848Z,8.10
2018-05-21T02:59:00.248Z,8.20
2018-05-21T03:01:27.880Z,7.37
2018-05-21T03:03:55.552Z,7.83
2018-05-21T03:06:24.187Z,7.83
2018-05-21T03:08:51.838Z,7.57
2018-05-21T03:11:19.716Z,7.00
2018-05-21T03:13:47.368Z,8.33
2018-05-21T03:16:15.246Z,7.27
2018-05-21T03:18:43.092Z,7.33
2018-05-21T03:21:10.720Z,6.83
2018-05-21T03:23:39.137Z,7.00
2018-05-21T03:26:07.023Z,6.67
2018-05-21T03:28:34.676Z,7.13
2018-05-21T03:31:02.322Z,7.20
2018-05-21T03:33:30.341Z,7.57
2018-05-21T03:35:58.179Z,7.10
2018-05-21T03:38:25.861Z,7.47
2018-05-21T03:40:53.784Z,7.17
2018-05-21T03:43:21.420Z,7.77
2018-05-21T03:45:50.057Z,7.90
2018-05-21T03:48:18.127Z,6.50
2018-05-21T03:50:45.829Z,8.87
2018-05-21T03:53:14.241Z,7.80
2018-05-21T03:55:42.342Z,9.00
2018-05-21T03:58:21.743Z,7.60
2018-05-21T04:01:02.116Z,7.93
2018-05-21T04:16:57.513Z,7.17
2018-05-21T04:19:25.148Z,8.00
2018-05-21T04:21:53.778Z,6.63
2018-05-21T04:24:21.477Z,6.90
2018-05-21T04:26:49.700Z,7.20
2018-05-21T04:29:17.330Z,7.33
2018-05-21T04:31:45.964Z,7.77
2018-05-21T04:34:13.609Z,7.40
2018-05-21T04:36:41.383Z,7.97
2018-05-21T04:39:09.564Z,8.67
2018-05-21T04:41:37.427Z,8.30
2018-05-21T04:44:05.094Z,8.73
2018-05-21T04:46:32.936Z,11.20
2018-05-21T04:49:00.582Z,7.27
2018-05-21T04:51:28.989Z,7.33
2018-05-21T04:53:57.070Z,7.20
2018-05-21T04:56:24.751Z,7.30
2018-05-21T04:58:52.389Z,8.57
2018-05-21T05:01:20.324Z,7.27
2018-05-21T05:03:47.980Z,7.20
2018-05-21T05:06:15.891Z,7.87
2018-05-21T05:08:43.601Z,9.07
2018-05-21T05:11:12.000Z,7.87
2018-05-21T05:13:39.796Z,7.47
2018-05-21T05:16:07.660Z,6.87
2018-05-21T05:18:35.317Z,6.33
2018-05-21T05:21:02.959Z,6.40
2018-05-21T05:23:30.644Z,6.53
2018-05-21T05:25:58.284Z,6.20
2018-05-21T05:28:26.079Z,6.60
2018-05-21T05:30:53.937Z,6.07
2018-05-21T05:33:21.799Z,6.97
2018-05-21T05:35:49.444Z,7.30
2018-05-21T05:38:17.749Z,6.27
2018-05-21T05:40:45.613Z,6.20
2018-05-21T05:43:13.265Z,7.00
2018-05-21T05:45:41.136Z,7.33
2018-05-21T05:48:08.781Z,7.37
2018-05-21T05:50:36.565Z,7.33
2018-05-21T05:53:04.993Z,7.33
2018-05-21T05:55:33.389Z,6.90
2018-05-21T05:58:01.065Z,7.30
2018-05-21T06:00:28.745Z,6.97
2018-05-21T06:02:56.614Z,6.27
2018-05-21T06:05:24.377Z,7.43
2018-05-21T06:07:52.242Z,6.80
2018-05-21T06:10:20.104Z,7.23
2018-05-21T06:12:47.752Z,8.10
2018-05-21T06:15:16.227Z,7.60
2018-05-21T06:17:43.926Z,7.57
2018-05-21T06:20:12.169Z,6.43
2018-05-21T06:22:39.856Z,7.10
2018-05-21T06:25:07.509Z,6.27
2018-05-21T06:27:35.144Z,6.33
2018-05-21T06:30:03.693Z,5.57
2018-05-21T06:32:32.148Z,5.80
2018-05-21T06:35:00.004Z,5.80
2018-05-21T06:37:27.813Z,5.23
2018-05-21T06:39:56.453Z,5.73
2018-05-21T06:42:24.115Z,7.57
2018-05-21T06:44:51.981Z,5.90
2018-05-21T06:47:19.624Z,6.87
2018-05-21T06:49:47.400Z,8.30
2018-05-21T06:52:15.274Z,8.40
2018-05-21T06:54:42.928Z,6.97
2018-05-21T06:57:10.564Z,8.90
2018-05-21T06:59:38.236Z,8.97
2018-05-21T07:02:05.881Z,8.27
2018-05-21T07:04:33.598Z,9.20
2018-05-21T07:07:01.306Z,8.53
2018-05-21T07:09:29.712Z,9.27
2018-05-21T07:11:57.354Z,9.27
2018-05-21T07:14:25.358Z,8.80
2018-05-21T07:16:53.221Z,9.00
2018-05-21T07:19:20.864Z,8.70
2018-05-21T07:21:48.929Z,9.33
2018-05-21T07:24:16.572Z,9.60
2018-05-21T07:26:44.969Z,8.97
2018-05-21T07:29:12.768Z,8.90
2018-05-21T07:31:40.420Z,8.23
2018-05-21T07:34:08.060Z,8.43
2018-05-21T07:36:36.129Z,9.00
2018-05-21T07:39:03.880Z,9.50
2018-05-21T07:41:31.516Z,9.17
2018-05-21T07:43:59.548Z,8.73
2018-05-21T07:46:27.414Z,9.07
2018-05-21T07:48:55.077Z,9.00
2018-05-21T07:51:23.225Z,8.40
2018-05-21T07:53:50.808Z,8.13
2018-05-21T07:56:18.445Z,9.53
2018-05-21T07:58:46.439Z,8.43
2018-05-21T08:01:14.080Z,8.87
2018-05-21T08:03:41.858Z,11.60
2018-05-21T08:06:09.732Z,8.77
2018-05-21T08:08:37.385Z,8.87
2018-05-21T08:11:05.066Z,9.27
2018-05-21T08:13:32.917Z,8.63
2018-05-21T08:16:00.576Z,7.80
2018-05-21T08:18:28.443Z,9.73
2018-05-21T08:20:56.225Z,8.57
2018-05-21T08:23:24.080Z,8.37
2018-05-21T08:25:51.726Z,9.23
2018-05-21T08:28:19.485Z,8.63
2018-05-21T08:30:47.372Z,10.47
2018-05-21T08:33:15.239Z,12.20
2018-05-21T08:35:43.099Z,10.43
2018-05-21T08:38:10.975Z,9.67
2018-05-21T08:40:38.656Z,10.63
2018-05-21T08:43:06.460Z,8.67
2018-05-21T08:45:34.864Z,9.53
2018-05-21T08:48:02.500Z,11.47
2018-05-21T08:50:30.388Z,12.13
2018-05-21T08:52:58.024Z,8.93
2018-05-21T08:55:25.664Z,8.90
2018-05-21T08:57:53.468Z,8.10
2018-05-21T09:00:21.318Z,8.70
2018-05-21T09:02:49.715Z,8.40
2018-05-21T09:05:17.396Z,8.10
2018-05-21T09:07:45.030Z,8.00
2018-05-21T09:10:12.708Z,7.43
2018-05-21T09:12:40.788Z,9.40
2018-05-21T09:15:08.432Z,8.97
2018-05-21T09:17:36.065Z,7.53
2018-05-21T09:20:05.002Z,7.77
2018-05-21T09:22:32.760Z,8.37
2018-05-21T09:25:00.825Z,6.47
2018-05-21T09:27:28.710Z,6.13
2018-05-21T09:29:56.344Z,7.13
2018-05-21T09:32:24.832Z,6.57
2018-05-21T09:34:53.004Z,7.63
2018-05-21T09:37:20.638Z,6.97
2018-05-21T09:39:49.037Z,7.00
2018-05-21T09:42:16.904Z,7.80
2018-05-21T09:44:44.537Z,7.40
2018-05-21T09:47:13.171Z,7.77
2018-05-21T09:49:41.021Z,5.47
2018-05-21T09:52:08.810Z,6.20
2018-05-21T09:54:36.671Z,5.53
2018-05-21T09:57:04.384Z,5.30
2018-05-21T09:59:32.789Z,5.73
2018-05-21T10:02:00.430Z,8.27
2018-05-21T10:04:29.362Z,4.80
2018-05-21T10:06:57.005Z,5.33
2018-05-21T10:09:24.642Z,4.60
2018-05-21T10:11:53.575Z,5.23
2018-05-21T10:14:21.220Z,4.67
2018-05-21T10:16:48.853Z,4.90
2018-05-21T10:19:17.592Z,5.10
2018-05-21T10:21:45.454Z,4.60
2018-05-21T10:24:13.437Z,4.70
2018-05-21T10:26:41.597Z,4.60
2018-05-21T10:29:09.460Z,4.90
2018-05-21T10:31:37.118Z,5.07
2018-05-21T10:34:04.988Z,4.63
2018-05-21T10:36:32.632Z,5.03
2018-05-21T10:39:00.267Z,5.07
2018-05-21T10:41:28.712Z,4.10
2018-05-21T10:43:56.471Z,4.57
2018-05-21T10:46:24.225Z,4.40
2018-05-21T10:48:52.497Z,4.90
2018-05-21T10:51:20.151Z,4.60
2018-05-21T10:53:48.023Z,4.10
2018-05-21T10:56:15.849Z,3.90
2018-05-21T10:58:43.429Z,4.57
2018-05-21T11:01:11.118Z,4.67
2018-05-21T11:03:39.188Z,4.30
2018-05-21T11:06:06.873Z,4.20
2018-05-21T11:08:34.516Z,3.80
2018-05-21T11:11:02.217Z,4.03
2018-05-21T11:13:30.616Z,4.87
2018-05-21T11:15:58.257Z,4.07
2018-05-21T11:18:26.977Z,4.30
2018-05-21T11:20:54.697Z,3.90
2018-05-21T11:23:22.337Z,5.70
2018-05-21T11:25:50.160Z,4.67
2018-05-21T11:28:17.789Z,5.43
2018-05-21T11:30:45.612Z,5.00
2018-05-21T11:33:13.474Z,4.83
2018-05-21T11:35:41.135Z,3.93
2018-05-21T11:38:08.764Z,4.37
2018-05-21T11:40:37.381Z,4.33
2018-05-21T11:43:05.061Z,5.43
2018-05-21T11:45:32.707Z,4.67
2018-05-21T11:48:00.396Z,4.80
2018-05-21T11:50:28.037Z,5.53
2018-05-21T11:52:55.796Z,5.70
2018-05-21T11:55:23.639Z,4.97
2018-05-21T11:57:51.272Z,4.27
2018-05-21T12:00:19.668Z,5.30
2018-05-21T12:02:48.393Z,5.03
2018-05-21T12:05:16.074Z,4.63
2018-05-21T12:07:43.716Z,5.37
2018-05-21T12:10:12.745Z,5.47
2018-05-21T12:12:41.161Z,4.80
2018-05-21T12:15:08.842Z,5.57
2018-05-21T12:17:37.430Z,3.97
2018-05-21T12:20:05.101Z,4.43
2018-05-21T12:22:32.732Z,4.67
2018-05-21T12:25:00.414Z,4.10
2018-05-21T12:27:28.074Z,3.53
2018-05-21T12:29:55.713Z,3.57
2018-05-21T12:32:23.914Z,4.00
2018-05-21T12:34:51.777Z,4.17
2018-05-21T12:37:19.542Z,4.10
2018-05-21T12:39:47.490Z,3.73
2018-05-21T12:42:15.128Z,3.83
2018-05-21T12:44:43.528Z,3.93
2018-05-21T12:47:11.216Z,3.50
2018-05-21T12:49:38.845Z,3.63
2018-05-21T12:52:06.740Z,2.50
2018-05-21T12:54:34.914Z,2.93
2018-05-21T12:57:02.783Z,3.47
2018-05-21T12:59:30.441Z,3.77
2018-05-21T13:01:58.492Z,4.00
2018-05-21T13:04:26.124Z,3.60
2018-05-21T13:06:54.537Z,3.77
2018-05-21T13:09:22.242Z,3.43
2018-05-21T13:11:49.981Z,3.50
2018-05-21T13:14:17.624Z,3.73
2018-05-21T13:16:46.072Z,2.83
2018-05-21T13:19:14.473Z,3.70
2018-05-21T13:21:42.105Z,3.47
2018-05-21T13:24:10.579Z,3.70
2018-05-21T13:26:39.005Z,2.70
2018-05-21T13:29:06.787Z,3.77
2018-05-21T13:31:34.858Z,3.90
2018-05-21T13:34:02.724Z,4.13
2018-05-21T13:36:30.369Z,3.47
2018-05-21T13:38:58.225Z,4.40
2018-05-21T13:41:25.860Z,3.40
2018-05-21T13:43:54.262Z,3.63
2018-05-21T13:46:21.981Z,4.03
2018-05-21T13:48:49.820Z,3.03
2018-05-21T13:51:17.461Z,3.60
2018-05-21T13:53:45.328Z,3.83
2018-05-21T13:56:13.112Z,3.37
2018-05-21T13:58:40.766Z,2.90
2018-05-21T14:01:08.544Z,3.77
2018-05-21T14:03:36.178Z,4.10
2018-05-21T14:06:03.861Z,3.60
2018-05-21T14:08:31.544Z,3.70
2018-05-21T14:10:59.180Z,3.40
2018-05-21T14:13:26.847Z,3.50
2018-05-21T14:15:54.709Z,4.40
2018-05-21T14:18:22.571Z,3.47
2018-05-21T14:20:50.217Z,3.30
2018-05-21T14:23:17.908Z,4.27
2018-05-21T14:25:45.544Z,5.50
2018-05-21T14:28:13.184Z,3.70
2018-05-21T14:30:41.808Z,2.77
2018-05-21T14:33:09.495Z,3.30
2018-05-21T14:35:37.127Z,4.40
2018-05-21T14:38:05.407Z,9.63
2018-05-21T14:40:33.274Z,4.03
2018-05-21T14:43:00.920Z,3.03
2018-05-21T14:45:28.621Z,3.17
2018-05-21T14:47:56.255Z,4.00
2018-05-21T14:50:23.888Z,2.90
2018-05-21T14:52:52.189Z,2.80
2018-05-21T14:55:20.063Z,4.10
2018-05-21T14:57:47.926Z,3.43
2018-05-21T15:00:15.788Z,3.13
2018-05-21T15:02:43.435Z,2.73
2018-05-21T15:05:11.077Z,3.30
2018-05-21T15:07:39.633Z,3.17
2018-05-21T15:10:08.183Z,3.10
2018-05-21T15:12:36.047Z,3.10
2018-05-21T15:15:03.784Z,3.20
2018-05-21T15:17:31.417Z,3.20
2018-05-21T15:19:59.821Z,3.70
2018-05-21T15:22:27.616Z,3.70
2018-05-21T15:24:55.250Z,3.20
2018-05-21T15:27:23.036Z,3.27
2018-05-21T15:29:50.889Z,4.07
2018-05-21T15:32:18.672Z,3.33
2018-05-21T15:34:46.540Z,3.20
2018-05-21T15:37:14.340Z,3.37
2018-05-21T15:39:42.886Z,4.33
2018-05-21T15:42:10.530Z,4.20
2018-05-21T15:44:38.284Z,3.47
2018-05-21T15:47:05.929Z,2.93
2018-05-21T15:49:34.328Z,3.20
2018-05-21T15:52:02.211Z,3.10
2018-05-21T15:54:29.854Z,3.00
2018-05-21T15:56:57.486Z,2.87
2018-05-21T15:59:26.228Z,2.60
2018-05-21T16:01:53.880Z,2.93
2018-05-21T16:04:21.524Z,2.83
2018-05-21T16:06:49.310Z,2.77
2018-05-21T16:09:16.983Z,3.47
2018-05-21T16:11:44.636Z,3.20
2018-05-21T16:14:12.810Z,2.80
2018-05-21T16:16:40.453Z,2.60
2018-05-21T16:19:08.089Z,3.73
2018-05-21T16:21:36.694Z,2.90
2018-05-21T16:24:04.581Z,2.60
2018-05-21T16:26:32.232Z,3.20
2018-05-21T16:29:00.084Z,3.10
2018-05-21T16:31:27.881Z,2.77
2018-05-21T16:33:55.529Z,3.00
2018-05-21T16:36:23.376Z,2.80
2018-05-21T16:38:51.075Z,2.77
2018-05-21T16:41:18.929Z,2.70
2018-05-21T16:43:46.790Z,3.20
2018-05-21T16:46:14.432Z,3.00
2018-05-21T16:48:42.065Z,2.70
2018-05-21T16:51:10.807Z,2.90
2018-05-21T16:53:40.107Z,2.70
2018-05-21T16:56:07.756Z,2.77
2018-05-21T16:58:35.690Z,2.63
2018-05-21T17:01:04.159Z,2.87
2018-05-21T17:03:32.583Z,2.67
2018-05-21T17:06:00.440Z,3.27
2018-05-21T17:08:28.072Z,3.20
2018-05-21T17:10:56.605Z,2.90
2018-05-21T17:13:24.468Z,3.10
2018-05-21T17:15:52.116Z,3.70
2018-05-21T17:18:19.748Z,3.33
2018-05-21T17:20:48.505Z,4.20
2018-05-21T17:23:16.149Z,3.17
2018-05-21T17:25:43.785Z,2.97
2018-05-21T17:28:12.072Z,3.00
2018-05-21T17:30:39.945Z,3.27
2018-05-21T17:33:07.809Z,3.63
2018-05-21T17:35:35.560Z,3.07
2018-05-21T17:38:03.212Z,3.40
2018-05-21T17:40:31.001Z,3.17
2018-05-21T17:42:58.941Z,3.40
2018-05-21T17:45:26.589Z,3.50
2018-05-21T17:47:55.008Z,3.30
2018-05-21T17:50:22.696Z,3.30
2018-05-21T17:52:50.997Z,3.37
2018-05-21T17:55:19.457Z,3.77
2018-05-21T17:57:48.129Z,3.57
2018-05-21T18:00:16.691Z,3.37
2018-05-21T18:02:44.333Z,3.30
2018-05-21T18:05:12.168Z,3.30
2018-05-21T18:07:40.706Z,3.70
2018-05-21T18:10:08.571Z,3.90
2018-05-21T18:12:36.432Z,3.57
2018-05-21T18:15:04.158Z,4.17
2018-05-21T18:17:31.806Z,3.13
2018-05-21T18:20:00.447Z,3.53
2018-05-21T18:22:28.311Z,3.57
2018-05-21T18:24:55.952Z,3.67
2018-05-21T18:27:23.840Z,3.10
2018-05-21T18:29:51.701Z,3.63
2018-05-21T18:32:19.575Z,3.60
2018-05-21T18:34:47.273Z,3.80
2018-05-21T18:37:14.905Z,3.70
2018-05-21T18:39:42.552Z,3.90
2018-05-21T18:42:10.424Z,3.40
2018-05-21T18:44:38.286Z,4.20
2018-05-21T18:47:05.954Z,3.47
2018-05-21T18:49:33.924Z,3.27
2018-05-21T18:52:01.569Z,3.43
2018-05-21T18:54:29.342Z,3.40
2018-05-21T18:56:57.392Z,3.60
2018-05-21T18:59:25.178Z,3.50
2018-05-21T19:01:52.825Z,2.73
2018-05-21T19:04:20.685Z,2.87
2018-05-21T19:06:49.857Z,2.40
2018-05-21T19:09:17.493Z,2.47
2018-05-21T19:11:46.136Z,2.63
2018-05-21T19:14:13.768Z,2.13
2018-05-21T19:16:41.547Z,1.80
2018-05-21T19:19:09.419Z,1.93
2018-05-21T19:21:37.064Z,1.87
2018-05-21T19:24:04.705Z,2.10
2018-05-21T19:26:33.019Z,1.97
2018-05-21T19:29:00.656Z,1.83
2018-05-21T19:31:28.436Z,2.03
2018-05-21T19:33:56.248Z,1.80
2018-05-21T19:36:23.881Z,1.87
2018-05-21T19:38:51.517Z,2.00
2018-05-21T19:41:19.800Z,2.10
2018-05-21T19:43:47.674Z,1.70
2018-05-21T19:46:15.323Z,2.13
2018-05-21T19:48:43.381Z,2.30
2018-05-21T19:51:11.017Z,2.27
2018-05-21T19:53:39.421Z,1.97
2018-05-21T19:56:07.614Z,2.20
2018-05-21T19:58:35.369Z,2.77
2018-05-21T20:01:03.043Z,2.50
2018-05-21T20:03:30.732Z,2.90
2018-05-21T20:06:00.107Z,2.40
2018-05-21T20:08:27.972Z,2.37
2018-05-21T20:10:55.863Z,2.40
2018-05-21T20:13:23.500Z,2.67
2018-05-21T20:15:51.140Z,2.50
2018-05-21T20:18:31.119Z,2.33
2018-05-21T20:20:58.979Z,3.67
2018-05-21T20:23:26.643Z,3.33
2018-05-21T20:25:54.485Z,2.40
2018-05-21T20:28:22.121Z,3.17
2018-05-21T20:30:50.528Z,3.10
2018-05-21T20:33:18.417Z,2.93
2018-05-21T20:35:46.069Z,2.70
2018-05-21T20:38:13.842Z,2.83
2018-05-21T20:40:41.549Z,3.00
2018-05-21T20:43:10.181Z,2.90
2018-05-21T20:45:37.824Z,2.80
2018-05-21T20:48:05.922Z,3.00
2018-05-21T20:50:33.585Z,3.27
2018-05-21T20:53:01.222Z,2.67
2018-05-21T20:55:29.221Z,3.33
2018-05-21T20:57:57.074Z,3.00
2018-05-21T21:00:24.737Z,3.03
2018-05-21T21:02:52.711Z,3.10
2018-05-21T21:05:20.964Z,2.63
2018-05-21T21:07:48.600Z,3.00
2018-05-21T21:10:17.057Z,3.07
2018-05-21T21:12:45.473Z,3.70
2018-05-21T21:15:13.108Z,2.90
2018-05-21T21:17:41.752Z,3.60
2018-05-21T21:20:09.616Z,3.03
2018-05-21T21:22:37.484Z,3.03
2018-05-21T21:25:05.224Z,3.30
2018-05-21T21:27:32.856Z,3.10
2018-05-21T21:30:01.386Z,3.33
2018-05-21T21:32:29.115Z,3.37
2018-05-21T21:34:56.749Z,3.20
2018-05-21T21:37:24.388Z,3.67
2018-05-21T21:39:52.243Z,3.83
2018-05-21T21:42:20.108Z,3.33
2018-05-21T21:44:47.970Z,3.60
2018-05-21T21:47:15.984Z,3.40
2018-05-21T21:49:44.726Z,3.70
2018-05-21T21:52:12.608Z,3.67
2018-05-21T21:54:40.545Z,3.77
2018-05-21T21:57:08.435Z,3.80
2018-05-21T21:59:36.233Z,3.90
2018-05-21T22:02:04.884Z,3.70
2018-05-21T22:04:32.749Z,3.60
2018-05-21T22:07:01.334Z,3.73
2018-05-21T22:09:29.405Z,3.80
2018-05-21T22:11:57.064Z,3.57
2018-05-21T22:14:24.933Z,4.20
2018-05-21T22:16:53.004Z,3.57
2018-05-21T22:19:20.868Z,4.00
2018-05-21T22:21:48.731Z,3.70
2018-05-21T22:24:16.803Z,3.50
2018-05-21T22:26:44.675Z,3.97
2018-05-21T22:29:12.539Z,4.13
2018-05-21T22:31:40.493Z,3.70
2018-05-21T22:34:08.128Z,4.00
2018-05-21T22:36:36.752Z,3.73
2018-05-21T22:39:04.709Z,3.80
2018-05-21T22:41:32.490Z,3.47
2018-05-21T22:44:00.352Z,3.80
2018-05-21T22:46:28.192Z,3.63
2018-05-21T22:48:55.978Z,3.67
2018-05-21T22:51:23.855Z,4.13
2018-05-21T22:53:51.556Z,3.87
2018-05-21T22:56:19.380Z,3.60
2018-05-21T22:58:47.035Z,3.50
2018-05-21T23:01:15.489Z,4.30
2018-05-21T23:03:43.124Z,3.80
2018-05-21T23:06:11.533Z,3.70
2018-05-21T23:08:39.212Z,4.13
2018-05-21T23:11:06.985Z,4.30
2018-05-21T23:13:34.632Z,4.30
2018-05-21T23:16:02.523Z,4.13
2018-05-21T23:18:30.379Z,3.87
2018-05-21T23:20:58.024Z,4.07
2018-05-21T23:23:25.876Z,4.23
2018-05-21T23:25:53.668Z,4.37
2018-05-21T23:28:21.541Z,4.70
2018-05-21T23:30:49.588Z,3.60
2018-05-21T23:33:17.375Z,3.97
2018-05-21T23:35:45.240Z,4.07
2018-05-21T23:38:13.102Z,4.63
2018-05-21T23:40:40.976Z,4.13
2018-05-21T23:43:08.838Z,4.07
2018-05-21T23:45:36.529Z,4.07
2018-05-21T23:48:05.672Z,4.47
2018-05-21T23:50:33.305Z,4.50
2018-05-21T23:53:02.002Z,4.20
2018-05-21T23:55:30.635Z,4.10
2018-05-21T23:57:58.494Z,4.60
